createdAt,value
2018-05-17T00:00:36.172Z,69.09
2018-05-17T00:03:04.331Z,69.14
2018-05-17T00:05:32.445Z,69.97
2018-05-17T00:08:00.774Z,69.55
2018-05-17T00:10:28.917Z,69.67
2018-05-17T00:12:57.040Z,69.13
2018-05-17T00:15:25.161Z,69.02
2018-05-17T00:17:53.302Z,68.50
2018-05-17T00:20:21.441Z,69.26
2018-05-17T00:22:49.545Z,69.79
2018-05-17T00:25:17.700Z,69.17
2018-05-17T00:27:45.841Z,69.80
2018-05-17T00:30:13.975Z,69.27
2018-05-17T00:32:42.286Z,69.52
2018-05-17T00:35:10.395Z,70.24
2018-05-17T00:37:38.520Z,70.51
2018-05-17T00:40:06.655Z,70.83
2018-05-17T00:42:34.758Z,71.05
2018-05-17T00:45:02.900Z,70.71
2018-05-17T00:47:31.042Z,71.63
2018-05-17T00:49:59.176Z,71.63
2018-05-17T00:52:27.375Z,72.11
2018-05-17T00:54:55.711Z,72.63
2018-05-17T00:57:23.758Z,72.79
2018-05-17T00:59:51.888Z,72.53
2018-05-17T01:02:20.047Z,72.28
2018-05-17T01:04:48.183Z,72.76
2018-05-17T01:07:16.284Z,72.84
2018-05-17T01:09:44.434Z,72.67
2018-05-17T01:12:13.047Z,72.41
2018-05-17T01:14:41.155Z,72.33
2018-05-17T01:17:09.297Z,73.10
2018-05-17T01:19:37.420Z,72.70
2018-05-17T01:22:05.554Z,71.49
2018-05-17T01:24:33.685Z,72.58
2018-05-17T01:27:01.814Z,72.51
2018-05-17T01:29:29.933Z,72.73
2018-05-17T01:31:58.227Z,72.96
2018-05-17T01:34:26.335Z,73.09
2018-05-17T01:37:06.413Z,72.89
2018-05-17T01:39:34.548Z,72.38
2018-05-17T01:42:02.675Z,72.59
2018-05-17T01:44:30.836Z,72.80
2018-05-17T01:46:58.954Z,73.24
2018-05-17T01:49:27.062Z,72.66
2018-05-17T01:51:55.206Z,72.69
2018-05-17T01:54:23.325Z,72.56
2018-05-17T01:56:51.456Z,72.01
2018-05-17T01:59:19.799Z,71.94
2018-05-17T02:01:47.938Z,71.99
2018-05-17T02:04:16.060Z,71.54
2018-05-17T02:06:44.178Z,71.48
2018-05-17T02:09:12.313Z,71.81
2018-05-17T02:11:40.428Z,72.25
2018-05-17T02:14:08.577Z,72.74
2018-05-17T02:16:36.708Z,72.93
2018-05-17T02:19:04.919Z,72.25
2018-05-17T02:21:32.961Z,72.98
2018-05-17T02:24:01.104Z,72.40
2018-05-17T02:26:29.242Z,73.33
2018-05-17T02:28:57.373Z,71.93
2018-05-17T02:31:25.560Z,72.01
2018-05-17T02:33:53.663Z,72.25
2018-05-17T02:36:21.814Z,73.09
2018-05-17T02:38:49.956Z,72.39
2018-05-17T02:41:18.057Z,72.71
2018-05-17T02:43:46.219Z,72.28
2018-05-17T02:46:14.345Z,71.30
2018-05-17T02:48:42.470Z,71.75
2018-05-17T02:51:10.604Z,71.83
2018-05-17T02:53:38.752Z,72.39
2018-05-17T02:56:07.287Z,72.36
2018-05-17T02:58:35.510Z,71.61
2018-05-17T03:01:03.610Z,71.49
2018-05-17T03:03:31.745Z,71.41
2018-05-17T03:05:59.873Z,71.57
2018-05-17T03:08:27.978Z,71.17
2018-05-17T03:10:56.091Z,71.16
2018-05-17T03:13:24.225Z,71.11
2018-05-17T03:15:52.379Z,70.67
2018-05-17T03:18:20.519Z,71.05
2018-05-17T03:20:48.653Z,71.45
2018-05-17T03:23:16.773Z,71.19
2018-05-17T03:25:44.915Z,70.70
2018-05-17T03:28:13.063Z,71.11
2018-05-17T03:30:41.195Z,71.00
2018-05-17T03:33:09.332Z,70.20
2018-05-17T03:35:37.480Z,70.55
2018-05-17T03:38:05.594Z,70.09
2018-05-17T03:40:33.723Z,70.44
2018-05-17T03:43:01.847Z,70.02
2018-05-17T03:45:33.382Z,70.78
2018-05-17T03:48:01.538Z,70.73
2018-05-17T03:50:29.669Z,70.11
2018-05-17T03:52:57.811Z,70.01
2018-05-17T03:55:25.947Z,70.66
2018-05-17T03:57:56.084Z,70.53
2018-05-17T04:00:24.217Z,70.07
2018-05-17T04:03:04.495Z,70.08
2018-05-17T04:05:44.457Z,69.49
2018-05-17T04:08:12.596Z,69.83
2018-05-17T04:10:40.708Z,68.87
2018-05-17T04:13:08.829Z,69.17
2018-05-17T04:15:37.301Z,68.92
2018-05-17T04:18:05.447Z,69.06
2018-05-17T04:20:33.629Z,69.30
2018-05-17T04:23:01.840Z,68.46
2018-05-17T04:25:29.943Z,68.46
2018-05-17T04:27:58.062Z,68.23
2018-05-17T04:30:26.198Z,68.22
2018-05-17T04:32:54.331Z,67.69
2018-05-17T04:35:22.456Z,68.28
2018-05-17T04:37:50.620Z,67.73
2018-05-17T04:40:18.740Z,67.38
2018-05-17T04:42:46.889Z,67.37
2018-05-17T04:45:15.021Z,67.65
2018-05-17T04:47:43.118Z,67.34
2018-05-17T04:50:11.263Z,67.24
2018-05-17T04:52:39.457Z,66.67
2018-05-17T04:55:07.577Z,67.45
2018-05-17T04:57:35.753Z,68.10
2018-05-17T05:00:07.337Z,67.46
2018-05-17T05:02:35.544Z,65.99
2018-05-17T05:05:03.601Z,67.23
2018-05-17T05:07:31.730Z,67.14
2018-05-17T05:09:59.849Z,67.11
2018-05-17T05:12:27.990Z,67.42
2018-05-17T05:14:56.125Z,67.35
2018-05-17T05:17:24.256Z,66.76
2018-05-17T05:19:52.405Z,66.21
2018-05-17T05:22:20.527Z,67.04
2018-05-17T05:24:48.669Z,65.98
2018-05-17T05:27:16.771Z,66.27
2018-05-17T05:29:44.902Z,66.12
2018-05-17T05:32:13.021Z,64.96
2018-05-17T05:34:41.135Z,66.29
2018-05-17T05:37:09.284Z,66.17
2018-05-17T05:39:37.405Z,66.06
2018-05-17T05:42:05.529Z,66.27
2018-05-17T05:44:33.692Z,65.65
2018-05-17T05:47:01.872Z,65.46
2018-05-17T05:49:30.045Z,65.60
2018-05-17T05:51:58.135Z,65.42
2018-05-17T05:54:26.269Z,65.40
2018-05-17T05:56:54.385Z,65.10
2018-05-17T05:59:22.543Z,64.68
2018-05-17T06:01:50.642Z,65.24
2018-05-17T06:04:18.772Z,65.62
2018-05-17T06:06:46.907Z,64.70
2018-05-17T06:09:15.111Z,65.09
2018-05-17T06:11:47.007Z,65.95
2018-05-17T06:14:15.144Z,65.37
2018-05-17T06:16:43.283Z,65.14
2018-05-17T06:19:11.397Z,65.41
2018-05-17T06:21:39.823Z,65.10
2018-05-17T06:24:07.941Z,65.70
2018-05-17T06:26:36.051Z,64.50
2018-05-17T06:29:04.195Z,65.20
2018-05-17T06:31:32.336Z,64.15
2018-05-17T06:34:00.528Z,64.47
2018-05-17T06:36:28.710Z,63.99
2018-05-17T06:38:56.850Z,65.01
2018-05-17T06:41:24.965Z,64.54
2018-05-17T06:43:53.164Z,64.33
2018-05-17T06:46:21.224Z,63.66
2018-05-17T06:48:49.331Z,63.44
2018-05-17T06:51:17.457Z,64.43
2018-05-17T06:53:45.599Z,63.63
2018-05-17T06:56:13.717Z,63.51
2018-05-17T06:58:41.867Z,63.43
2018-05-17T07:01:10.071Z,63.16
2018-05-17T07:03:38.264Z,63.00
2018-05-17T07:06:06.409Z,62.16
2018-05-17T07:08:34.549Z,61.89
2018-05-17T07:11:02.666Z,61.96
2018-05-17T07:13:30.805Z,61.13
2018-05-17T07:15:58.914Z,61.80
2018-05-17T07:18:27.253Z,61.02
2018-05-17T07:20:55.213Z,61.23
2018-05-17T07:23:23.331Z,61.10
2018-05-17T07:25:51.456Z,61.88
2018-05-17T07:28:19.575Z,61.35
2018-05-17T07:30:47.696Z,61.72
2018-05-17T07:33:15.821Z,60.46
2018-05-17T07:35:43.970Z,60.48
2018-05-17T07:38:12.080Z,61.18
2018-05-17T07:40:40.223Z,60.88
2018-05-17T07:43:08.365Z,61.26
2018-05-17T07:45:36.479Z,61.25
2018-05-17T07:48:04.619Z,60.58
2018-05-17T07:50:32.753Z,59.98
2018-05-17T07:53:00.885Z,60.00
2018-05-17T07:55:29.074Z,60.07
2018-05-17T07:57:57.161Z,60.24
2018-05-17T08:00:25.371Z,60.58
2018-05-17T08:02:53.408Z,60.19
2018-05-17T08:05:21.566Z,60.19
2018-05-17T08:07:49.684Z,60.40
2018-05-17T08:10:17.809Z,61.09
2018-05-17T08:12:45.960Z,61.09
2018-05-17T08:15:14.096Z,61.45
2018-05-17T08:17:42.211Z,60.77
2018-05-17T08:20:10.375Z,61.58
2018-05-17T08:22:38.480Z,60.64
2018-05-17T08:25:06.620Z,60.72
2018-05-17T08:27:34.768Z,61.24
2018-05-17T08:30:02.893Z,59.85
2018-05-17T08:32:31.027Z,59.77
2018-05-17T08:34:59.231Z,59.16
2018-05-17T08:37:27.385Z,59.25
2018-05-17T08:39:55.509Z,59.18
2018-05-17T08:42:23.939Z,59.03
2018-05-17T08:44:52.046Z,59.20
2018-05-17T08:47:20.172Z,58.11
2018-05-17T08:49:48.313Z,58.01
2018-05-17T08:52:16.457Z,58.92
2018-05-17T08:54:44.577Z,59.26
2018-05-17T08:57:12.888Z,59.47
2018-05-17T08:59:41.058Z,59.66
2018-05-17T09:02:09.122Z,58.66
2018-05-17T09:04:37.261Z,58.95
2018-05-17T09:07:05.399Z,58.04
2018-05-17T09:09:33.535Z,57.25
2018-05-17T09:12:01.688Z,57.58
2018-05-17T09:14:29.817Z,57.47
2018-05-17T09:16:57.920Z,58.37
2018-05-17T09:19:26.237Z,62.82
2018-05-17T09:21:54.365Z,63.16
2018-05-17T09:24:22.523Z,61.56
2018-05-17T09:26:50.657Z,60.82
2018-05-17T09:29:18.965Z,59.26
2018-05-17T09:31:47.266Z,58.46
2018-05-17T09:34:15.402Z,58.34
2018-05-17T09:36:43.528Z,57.61
2018-05-17T09:39:11.668Z,56.18
2018-05-17T09:41:39.805Z,55.13
2018-05-17T09:44:07.925Z,56.33
2018-05-17T09:46:36.031Z,56.47
2018-05-17T09:49:04.186Z,57.11
2018-05-17T09:51:32.319Z,57.07
2018-05-17T09:54:00.463Z,56.99
2018-05-17T09:56:28.605Z,56.04
2018-05-17T09:58:56.722Z,56.50
2018-05-17T10:01:24.831Z,57.18
2018-05-17T10:03:52.966Z,56.67
2018-05-17T10:06:21.081Z,55.82
2018-05-17T10:08:49.288Z,55.46
2018-05-17T10:11:17.363Z,55.26
2018-05-17T10:13:45.471Z,56.18
2018-05-17T10:16:13.601Z,55.15
2018-05-17T10:18:41.734Z,54.33
2018-05-17T10:21:09.858Z,53.63
2018-05-17T10:23:37.988Z,54.24
2018-05-17T10:26:06.121Z,54.74
2018-05-17T10:28:34.252Z,55.06
2018-05-17T10:31:02.359Z,55.35
2018-05-17T10:33:30.771Z,55.88
2018-05-17T10:35:58.881Z,54.80
2018-05-17T10:38:27.011Z,55.27
2018-05-17T10:40:55.127Z,56.50
2018-05-17T10:43:23.258Z,56.03
2018-05-17T10:45:51.381Z,54.40
2018-05-17T10:48:19.504Z,54.30
2018-05-17T10:50:47.629Z,55.83
2018-05-17T10:53:15.753Z,54.13
2018-05-17T10:55:43.906Z,54.27
2018-05-17T10:58:12.011Z,54.17
2018-05-17T11:00:40.151Z,53.39
2018-05-17T11:03:08.270Z,52.92
2018-05-17T11:05:36.387Z,53.13
2018-05-17T11:08:04.513Z,52.69
2018-05-17T11:10:32.662Z,53.27
2018-05-17T11:13:00.792Z,52.56
2018-05-17T11:15:28.898Z,53.32
2018-05-17T11:17:57.039Z,53.12
2018-05-17T11:20:25.135Z,52.96
2018-05-17T11:22:53.262Z,51.83
2018-05-17T11:25:21.390Z,52.42
2018-05-17T11:27:49.501Z,51.47
2018-05-17T11:30:17.643Z,51.84
2018-05-17T11:32:45.777Z,51.56
2018-05-17T11:35:13.903Z,51.58
2018-05-17T11:37:42.022Z,51.85
2018-05-17T11:40:10.179Z,51.44
2018-05-17T11:42:38.297Z,51.51
2018-05-17T11:45:06.431Z,51.01
2018-05-17T11:47:34.583Z,50.67
2018-05-17T11:50:02.766Z,49.23
2018-05-17T11:52:30.879Z,50.65
2018-05-17T11:54:59.041Z,50.93
2018-05-17T11:57:27.176Z,48.36
2018-05-17T11:59:55.413Z,47.71
2018-05-17T12:02:23.542Z,46.77
2018-05-17T12:04:51.676Z,48.20
2018-05-17T12:07:19.890Z,47.66
2018-05-17T12:09:47.993Z,49.71
2018-05-17T12:12:16.126Z,49.63
2018-05-17T12:14:44.231Z,48.97
2018-05-17T12:17:12.387Z,49.40
2018-05-17T12:19:40.494Z,48.75
2018-05-17T12:22:08.647Z,48.39
2018-05-17T12:24:36.784Z,47.56
2018-05-17T12:27:04.916Z,47.74
2018-05-17T12:29:33.033Z,46.96
2018-05-17T12:32:01.265Z,45.44
2018-05-17T12:34:32.397Z,45.74
2018-05-17T12:37:00.540Z,46.94
2018-05-17T12:39:28.690Z,46.92
2018-05-17T12:41:56.794Z,46.32
2018-05-17T12:44:24.921Z,46.24
2018-05-17T12:46:53.080Z,46.91
2018-05-17T12:49:21.420Z,46.01
2018-05-17T12:51:49.522Z,45.32
2018-05-17T12:54:17.687Z,46.55
2018-05-17T12:56:45.859Z,45.99
2018-05-17T12:59:14.065Z,45.39
2018-05-17T13:01:42.180Z,45.55
2018-05-17T13:04:10.304Z,44.66
2018-05-17T13:06:38.430Z,44.68
2018-05-17T13:09:06.583Z,45.42
2018-05-17T13:11:34.688Z,43.83
2018-05-17T13:14:02.827Z,45.11
2018-05-17T13:16:30.946Z,43.27
2018-05-17T13:18:59.076Z,43.32
2018-05-17T13:21:27.193Z,42.86
2018-05-17T13:23:55.333Z,43.18
2018-05-17T13:26:23.458Z,43.26
2018-05-17T13:28:51.581Z,43.37
2018-05-17T13:31:19.730Z,43.56
2018-05-17T13:33:47.857Z,43.52
2018-05-17T13:36:15.985Z,42.84
2018-05-17T13:38:44.108Z,44.06
2018-05-17T13:41:12.238Z,43.54
2018-05-17T13:43:40.356Z,42.55
2018-05-17T13:46:08.512Z,43.13
2018-05-17T13:48:36.632Z,43.61
2018-05-17T13:51:04.765Z,41.25
2018-05-17T13:53:33.549Z,42.67
2018-05-17T13:56:01.674Z,41.07
2018-05-17T13:58:29.782Z,41.00
2018-05-17T14:00:57.949Z,41.50
2018-05-17T14:03:26.093Z,42.19
2018-05-17T14:05:54.752Z,42.68
2018-05-17T14:08:22.890Z,42.90
2018-05-17T14:10:51.031Z,42.94
2018-05-17T14:13:19.162Z,42.22
2018-05-17T14:15:47.312Z,41.61
2018-05-17T14:18:15.448Z,41.85
2018-05-17T14:20:49.975Z,42.18
2018-05-17T14:23:18.097Z,41.83
2018-05-17T14:25:46.202Z,41.39
2018-05-17T14:28:14.331Z,41.69
2018-05-17T14:30:42.474Z,42.90
2018-05-17T14:33:10.576Z,39.24
2018-05-17T14:35:38.742Z,38.98
2018-05-17T14:38:06.889Z,39.46
2018-05-17T14:40:35.006Z,39.58
2018-05-17T14:43:03.165Z,40.51
2018-05-17T14:45:31.274Z,40.94
2018-05-17T14:47:59.398Z,41.33
2018-05-17T14:50:27.537Z,41.49
2018-05-17T14:52:55.668Z,43.01
2018-05-17T14:55:23.775Z,42.36
2018-05-17T14:57:51.932Z,42.16
2018-05-17T15:00:20.064Z,42.02
2018-05-17T15:02:48.188Z,41.08
2018-05-17T15:05:16.354Z,41.54
2018-05-17T15:07:44.484Z,42.06
2018-05-17T15:10:12.633Z,42.57
2018-05-17T15:12:40.760Z,42.92
2018-05-17T15:15:08.866Z,43.42
2018-05-17T15:17:36.988Z,43.12
2018-05-17T15:20:05.133Z,43.52
2018-05-17T15:22:33.308Z,44.20
2018-05-17T15:25:01.446Z,43.47
2018-05-17T15:27:29.684Z,44.65
2018-05-17T15:29:57.834Z,44.35
2018-05-17T15:32:25.852Z,44.79
2018-05-17T15:34:54.006Z,44.40
2018-05-17T15:37:22.131Z,44.85
2018-05-17T15:39:50.259Z,44.72
2018-05-17T15:42:18.411Z,45.81
2018-05-17T15:44:46.552Z,44.51
2018-05-17T15:47:14.656Z,45.12
2018-05-17T15:49:42.779Z,45.48
2018-05-17T15:52:10.896Z,46.63
2018-05-17T15:54:39.018Z,47.53
2018-05-17T15:57:07.161Z,48.13
2018-05-17T15:59:35.270Z,48.27
2018-05-17T16:02:03.396Z,47.88
2018-05-17T16:04:31.513Z,46.94
2018-05-17T16:06:59.678Z,46.71
2018-05-17T16:09:27.806Z,47.13
2018-05-17T16:11:55.938Z,47.84
2018-05-17T16:14:24.063Z,47.89
2018-05-17T16:16:52.170Z,48.19
2018-05-17T16:19:20.508Z,48.50
2018-05-17T16:21:48.705Z,48.16
2018-05-17T16:24:16.777Z,48.46
2018-05-17T16:26:45.022Z,48.43
2018-05-17T16:29:13.145Z,48.89
2018-05-17T16:31:41.246Z,50.05
2018-05-17T16:34:09.735Z,49.42
2018-05-17T16:36:37.921Z,49.70
2018-05-17T16:39:06.077Z,49.98
2018-05-17T16:41:34.225Z,49.65
2018-05-17T16:44:02.354Z,49.51
2018-05-17T16:46:30.609Z,49.43
2018-05-17T16:48:58.727Z,49.42
2018-05-17T16:51:26.867Z,49.79
2018-05-17T16:53:54.988Z,50.40
2018-05-17T16:56:23.133Z,49.85
2018-05-17T16:58:51.320Z,49.06
2018-05-17T17:01:19.381Z,50.15
2018-05-17T17:03:47.519Z,50.27
2018-05-17T17:06:15.640Z,50.42
2018-05-17T17:08:43.760Z,50.62
2018-05-17T17:11:11.910Z,50.26
2018-05-17T17:13:40.033Z,50.37
2018-05-17T17:16:11.820Z,50.47
2018-05-17T17:18:43.750Z,50.68
2018-05-17T17:21:11.873Z,50.38
2018-05-17T17:23:40.012Z,50.96
2018-05-17T17:26:08.163Z,50.46
2018-05-17T17:28:36.309Z,50.76
2018-05-17T17:31:04.418Z,50.40
2018-05-17T17:33:32.561Z,50.80
2018-05-17T17:36:00.670Z,50.61
2018-05-17T17:38:28.804Z,51.26
2018-05-17T17:40:56.959Z,51.34
2018-05-17T17:43:25.105Z,51.57
2018-05-17T17:45:53.336Z,51.57
2018-05-17T17:48:21.555Z,51.92
2018-05-17T17:50:49.807Z,52.32
2018-05-17T17:53:17.915Z,52.38
2018-05-17T17:55:46.279Z,52.37
2018-05-17T17:58:14.456Z,53.56
2018-05-17T18:00:42.593Z,53.06
2018-05-17T18:03:10.745Z,52.52
2018-05-17T18:05:38.861Z,53.10
2018-05-17T18:08:07.004Z,52.81
2018-05-17T18:10:35.148Z,53.55
2018-05-17T18:13:03.264Z,54.01
2018-05-17T18:15:31.410Z,53.88
2018-05-17T18:18:00.520Z,53.96
2018-05-17T18:20:28.653Z,53.74
2018-05-17T18:22:56.777Z,54.09
2018-05-17T18:25:24.926Z,54.25
2018-05-17T18:27:53.027Z,54.41
2018-05-17T18:30:21.143Z,54.88
2018-05-17T18:32:52.947Z,54.40
2018-05-17T18:35:21.053Z,55.41
2018-05-17T18:37:49.245Z,55.21
2018-05-17T18:40:17.388Z,55.48
2018-05-17T18:42:45.654Z,55.69
2018-05-17T18:45:13.799Z,55.42
2018-05-17T18:47:42.136Z,55.51
2018-05-17T18:50:10.279Z,55.84
2018-05-17T18:52:38.393Z,55.93
2018-05-17T18:55:07.050Z,56.01
2018-05-17T18:57:41.303Z,55.29
2018-05-17T19:00:09.464Z,55.14
2018-05-17T19:02:37.659Z,56.06
2018-05-17T19:05:05.890Z,55.32
2018-05-17T19:07:34.033Z,55.96
2018-05-17T19:10:02.189Z,55.84
2018-05-17T19:12:30.289Z,56.04
2018-05-17T19:14:58.429Z,56.17
2018-05-17T19:17:26.620Z,56.00
2018-05-17T19:19:54.743Z,56.62
2018-05-17T19:22:22.881Z,56.88
2018-05-17T19:24:51.012Z,56.90
2018-05-17T19:27:19.151Z,58.00
2018-05-17T19:29:48.111Z,57.69
2018-05-17T19:32:16.239Z,58.23
2018-05-17T19:34:44.358Z,58.12
2018-05-17T19:37:12.525Z,57.73
2018-05-17T19:39:40.604Z,58.22
2018-05-17T19:42:08.748Z,58.27
2018-05-17T19:44:36.900Z,58.50
2018-05-17T19:47:05.017Z,58.79
2018-05-17T19:49:33.147Z,59.11
2018-05-17T19:52:01.433Z,59.56
2018-05-17T19:54:29.557Z,59.61
2018-05-17T19:56:57.691Z,59.65
2018-05-17T19:59:26.164Z,59.35
2018-05-17T20:01:54.242Z,59.65
2018-05-17T20:04:22.377Z,59.70
2018-05-17T20:06:50.509Z,59.80
2018-05-17T20:09:18.651Z,60.45
2018-05-17T20:11:46.845Z,60.34
2018-05-17T20:14:14.967Z,60.15
2018-05-17T20:16:43.129Z,60.35
2018-05-17T20:19:11.264Z,60.34
2018-05-17T20:21:39.384Z,61.02
2018-05-17T20:24:07.514Z,60.99
2018-05-17T20:26:35.642Z,61.86
2018-05-17T20:29:03.755Z,61.07
2018-05-17T20:31:31.867Z,61.55
2018-05-17T20:33:59.996Z,61.32
2018-05-17T20:36:28.131Z,61.10
2018-05-17T20:38:56.253Z,61.02
2018-05-17T20:41:24.356Z,61.59
2018-05-17T20:43:52.497Z,61.90
2018-05-17T20:46:20.616Z,61.98
2018-05-17T20:48:48.738Z,61.93
2018-05-17T20:51:16.888Z,62.25
2018-05-17T20:53:45.019Z,62.38
2018-05-17T20:56:13.181Z,62.62
2018-05-17T20:58:41.316Z,62.08
2018-05-17T21:01:11.360Z,62.21
2018-05-17T21:03:39.477Z,62.34
2018-05-17T21:06:07.615Z,62.97
2018-05-17T21:08:35.757Z,63.69
2018-05-17T21:11:03.931Z,63.75
2018-05-17T21:13:35.715Z,62.95
2018-05-17T21:16:03.872Z,63.08
2018-05-17T21:18:31.963Z,63.08
2018-05-17T21:21:00.282Z,62.89
2018-05-17T21:23:28.475Z,63.47
2018-05-17T21:25:56.580Z,63.18
2018-05-17T21:28:24.822Z,62.90
2018-05-17T21:30:52.861Z,63.29
2018-05-17T21:33:21.027Z,63.67
2018-05-17T21:35:49.149Z,64.18
2018-05-17T21:38:17.336Z,63.68
2018-05-17T21:40:45.431Z,63.99
2018-05-17T21:43:13.610Z,63.96
2018-05-17T21:45:41.733Z,63.77
2018-05-17T21:48:09.883Z,63.61
2018-05-17T21:50:38.048Z,63.74
2018-05-17T21:53:06.151Z,63.76
2018-05-17T21:55:34.307Z,63.17
2018-05-17T21:58:02.440Z,62.73
2018-05-17T22:00:30.562Z,63.29
2018-05-17T22:02:58.687Z,63.67
2018-05-17T22:05:26.816Z,63.60
2018-05-17T22:07:55.097Z,63.38
2018-05-17T22:10:23.220Z,63.47
2018-05-17T22:12:51.343Z,63.98
2018-05-17T22:15:19.486Z,64.04
2018-05-17T22:17:47.622Z,64.00
2018-05-17T22:20:15.754Z,64.10
2018-05-17T22:22:43.876Z,64.04
2018-05-17T22:25:11.974Z,63.98
2018-05-17T22:27:40.122Z,63.89
2018-05-17T22:30:08.244Z,64.08
2018-05-17T22:32:36.369Z,64.50
2018-05-17T22:35:04.494Z,64.09
2018-05-17T22:37:32.618Z,64.53
2018-05-17T22:40:00.736Z,64.65
2018-05-17T22:42:28.879Z,64.24
2018-05-17T22:44:57.013Z,64.21
2018-05-17T22:47:25.134Z,63.92
2018-05-17T22:49:53.291Z,63.38
2018-05-17T22:52:21.418Z,64.33
2018-05-17T22:54:49.527Z,63.76
2018-05-17T22:57:29.572Z,63.72
2018-05-17T22:59:57.708Z,64.50
2018-05-17T23:02:25.831Z,64.62
2018-05-17T23:04:53.959Z,64.53
2018-05-17T23:07:22.088Z,65.04
2018-05-17T23:09:50.203Z,65.37
2018-05-17T23:12:18.326Z,64.75
2018-05-17T23:14:46.464Z,65.08
2018-05-17T23:17:14.595Z,65.30
2018-05-17T23:19:43.444Z,64.68
2018-05-17T23:25:14.387Z,64.58
2018-05-17T23:27:42.531Z,64.57
2018-05-17T23:30:10.655Z,64.79
2018-05-17T23:32:38.794Z,64.95
2018-05-17T23:35:06.944Z,65.24
2018-05-17T23:37:35.155Z,64.53
2018-05-17T23:40:14.975Z,65.21
2018-05-17T23:42:43.102Z,64.92
2018-05-17T23:45:11.223Z,64.84
2018-05-17T23:47:39.350Z,63.73
2018-05-17T23:50:07.483Z,64.26
2018-05-17T23:52:35.612Z,64.44
2018-05-17T23:55:03.747Z,64.34
2018-05-17T23:57:31.866Z,64.30
2018-05-17T23:59:59.970Z,64.35
